Terminal Aerodrome Forecast
Issued by NWS

Home | Current Version | Previous Version | Text Only | Print | Product List | Glossary On
Versions: 1 2 3 4 5 6 7 8 9 10 11 12 13 14 15 16 17 18 19 20 21 22 23 24
000
FTPA31 PHFO 250500
TAFMKK
TAF
PHMK 250520Z 2506/2606 04011G16KT P6SM VCSH SCT020 BKN035
      TEMPO 2506/2510 04014G21KT -SHRA SCT016 BKN025
     FM251900 04017G25KT P6SM VCSH SCT020 BKN040
     FM260500 04011G18KT P6SM SCT020 SCT040=

USA.gov is the U.S. government's official web portal to all federal, state and local government web resources and services.